Portada
METAR-TAF:

METAR-TAF

Aeroports :

Knox County Regional Airport

Rockland, Maine, Estats Units d'Amèrica

latitud: 44-04N, longitud: 069-06W, altitud: 17 m

Observació

L'informe es va fer fa 1 hora i 3 minuts, a les 21:56 UTC
Vent 7 kt del Est/Sud-Est
Temperatura 9°C
Humitat 71%
Pressió 1027 hPa
Visibilitat: 16.1 km
Cel clar

METAR: KRKD 242156Z AUTO 12007KT 10SM CLR 09/04 A3034 RMK AO2 SLP273 T00890039

Hora: 18:59 (22:59 UTC)

Pronòstic

L'informe es va fer fa 5 hores i 39 minuts, a les 17:20 UTC
Pronòstic vàlid del 24 a les 18 UTC al 25 a les 18 UTC
Vent 11 kt del Est/Sud-Est
Visibilitat: 10 km
Escasses núvols a una alçada de 25000 ft
A partir de les 25 a les 0900 UTC
Vent 7 kt del Est/Sud-Est
Visibilitat: 8.0 km
Cel ennuvolat a una alçada de 1500 ft
boirina

TAF: KRKD 241720Z 2418/2518 11011KT P6SM FEW250 FM250900 11007KT 5SM BR BKN015

Observacions i pronòstics meteorològics de més de 4000 aeroports (METAR i TAF).

Les estacions disponibles són els punts grocs i vermells al mapa.

Posi el ratolí al punt desitjat per veure el nom de l'estació.

Feu clic per veure les observacions i els pronòstics meteorològics.

Per canviar el mapa: feu clic els botons verds amb una creu de color negre per apropar; al botó verd amb un guió per allunyar la imatge; o en les fletxes verdes per a mapes adjacents.


METAR-TAF: